sensor_id;sensor_type;location;lat;lon;timestamp;P1;durP1;ratioP1;P2;durP2;ratioP2
23747;SDS011;12054;53.662;10.126;2023-05-14T00:00:11;12.10;;;9.00;;
23747;SDS011;12054;53.662;10.126;2023-05-14T00:02:37;12.38;;;8.88;;
23747;SDS011;12054;53.662;10.126;2023-05-14T00:05:03;10.32;;;9.27;;
23747;SDS011;12054;53.662;10.126;2023-05-14T00:07:28;11.27;;;8.93;;
23747;SDS011;12054;53.662;10.126;2023-05-14T00:09:57;10.18;;;8.77;;
23747;SDS011;12054;53.662;10.126;2023-05-14T00:12:23;11.65;;;9.95;;
23747;SDS011;12054;53.662;10.126;2023-05-14T00:14:50;10.10;;;9.07;;
23747;SDS011;12054;53.662;10.126;2023-05-14T00:17:16;9.60;;;8.35;;
23747;SDS011;12054;53.662;10.126;2023-05-14T00:19:41;9.88;;;8.88;;
23747;SDS011;12054;53.662;10.126;2023-05-14T00:22:07;14.82;;;9.73;;
23747;SDS011;12054;53.662;10.126;2023-05-14T00:24:33;11.20;;;9.35;;
23747;SDS011;12054;53.662;10.126;2023-05-14T00:26:59;9.75;;;8.75;;
23747;SDS011;12054;53.662;10.126;2023-05-14T00:29:25;10.20;;;8.90;;
23747;SDS011;12054;53.662;10.126;2023-05-14T00:31:50;9.57;;;8.45;;
23747;SDS011;12054;53.662;10.126;2023-05-14T00:34:16;10.20;;;9.15;;
23747;SDS011;12054;53.662;10.126;2023-05-14T00:36:41;10.27;;;9.10;;
23747;SDS011;12054;53.662;10.126;2023-05-14T00:39:07;10.50;;;9.02;;
23747;SDS011;12054;53.662;10.126;2023-05-14T00:41:32;9.70;;;7.93;;
23747;SDS011;12054;53.662;10.126;2023-05-14T00:43:58;10.27;;;9.15;;
23747;SDS011;12054;53.662;10.126;2023-05-14T00:46:23;12.10;;;10.23;;
23747;SDS011;12054;53.662;10.126;2023-05-14T00:48:49;10.45;;;9.32;;
23747;SDS011;12054;53.662;10.126;2023-05-14T00:51:15;10.75;;;9.18;;
23747;SDS011;12054;53.662;10.126;2023-05-14T00:53:41;10.45;;;9.27;;
23747;SDS011;12054;53.662;10.126;2023-05-14T00:56:07;12.23;;;9.23;;
23747;SDS011;12054;53.662;10.126;2023-05-14T00:58:33;9.93;;;8.93;;
23747;SDS011;12054;53.662;10.126;2023-05-14T01:00:59;12.50;;;9.60;;
23747;SDS011;12054;53.662;10.126;2023-05-14T01:03:24;10.77;;;9.35;;
23747;SDS011;12054;53.662;10.126;2023-05-14T01:17:01;10.98;;;9.82;;
23747;SDS011;12054;53.662;10.126;2023-05-14T01:19:44;10.10;;;9.10;;
23747;SDS011;12054;53.662;10.126;2023-05-14T01:22:11;9.27;;;8.38;;
23747;SDS011;12054;53.662;10.126;2023-05-14T01:24:37;10.50;;;9.50;;
23747;SDS011;12054;53.662;10.126;2023-05-14T01:27:13;9.70;;;8.68;;
23747;SDS011;12054;53.662;10.126;2023-05-14T01:29:58;10.13;;;8.85;;
23747;SDS011;12054;53.662;10.126;2023-05-14T01:32:38;10.60;;;9.45;;
23747;SDS011;12054;53.662;10.126;2023-05-14T01:35:06;10.02;;;8.90;;
23747;SDS011;12054;53.662;10.126;2023-05-14T01:37:33;10.65;;;9.20;;
23747;SDS011;12054;53.662;10.126;2023-05-14T01:40:00;10.88;;;9.77;;
23747;SDS011;12054;53.662;10.126;2023-05-14T01:42:27;10.15;;;8.93;;
23747;SDS011;12054;53.662;10.126;2023-05-14T01:44:53;13.70;;;10.23;;
23747;SDS011;12054;53.662;10.126;2023-05-14T01:47:19;13.30;;;9.48;;
23747;SDS011;12054;53.662;10.126;2023-05-14T01:49:45;13.05;;;9.65;;
23747;SDS011;12054;53.662;10.126;2023-05-14T01:52:10;11.57;;;9.48;;
23747;SDS011;12054;53.662;10.126;2023-05-14T01:54:36;11.00;;;9.50;;
23747;SDS011;12054;53.662;10.126;2023-05-14T01:57:01;14.20;;;9.50;;
23747;SDS011;12054;53.662;10.126;2023-05-14T01:59:30;12.50;;;9.45;;
23747;SDS011;12054;53.662;10.126;2023-05-14T02:01:55;10.35;;;9.30;;
23747;SDS011;12054;53.662;10.126;2023-05-14T02:04:21;11.30;;;9.23;;
23747;SDS011;12054;53.662;10.126;2023-05-14T02:06:46;11.70;;;8.32;;
23747;SDS011;12054;53.662;10.126;2023-05-14T02:09:12;10.70;;;8.30;;
23747;SDS011;12054;53.662;10.126;2023-05-14T02:11:37;11.00;;;8.88;;
23747;SDS011;12054;53.662;10.126;2023-05-14T02:14:03;10.35;;;8.82;;
23747;SDS011;12054;53.662;10.126;2023-05-14T02:16:28;10.18;;;8.38;;
23747;SDS011;12054;53.662;10.126;2023-05-14T02:18:54;10.27;;;8.30;;
23747;SDS011;12054;53.662;10.126;2023-05-14T02:21:19;9.88;;;8.48;;
23747;SDS011;12054;53.662;10.126;2023-05-14T02:23:45;9.50;;;8.32;;
23747;SDS011;12054;53.662;10.126;2023-05-14T02:26:12;9.77;;;8.77;;
23747;SDS011;12054;53.662;10.126;2023-05-14T02:28:37;10.63;;;8.23;;
23747;SDS011;12054;53.662;10.126;2023-05-14T02:31:03;9.73;;;8.73;;
23747;SDS011;12054;53.662;10.126;2023-05-14T02:33:28;11.07;;;8.52;;
23747;SDS011;12054;53.662;10.126;2023-05-14T02:35:54;9.07;;;8.18;;
23747;SDS011;12054;53.662;10.126;2023-05-14T02:38:19;9.15;;;8.25;;
23747;SDS011;12054;53.662;10.126;2023-05-14T02:40:45;9.27;;;8.27;;
23747;SDS011;12054;53.662;10.126;2023-05-14T02:43:10;9.85;;;8.48;;
23747;SDS011;12054;53.662;10.126;2023-05-14T02:45:36;8.80;;;7.80;;
23747;SDS011;12054;53.662;10.126;2023-05-14T02:48:01;9.82;;;8.23;;
23747;SDS011;12054;53.662;10.126;2023-05-14T02:50:27;9.15;;;8.00;;
23747;SDS011;12054;53.662;10.126;2023-05-14T02:52:52;9.30;;;8.40;;
23747;SDS011;12054;53.662;10.126;2023-05-14T02:55:18;8.85;;;7.75;;
23747;SDS011;12054;53.662;10.126;2023-05-14T02:57:44;9.95;;;8.27;;
23747;SDS011;12054;53.662;10.126;2023-05-14T03:00:10;11.50;;;7.57;;
23747;SDS011;12054;53.662;10.126;2023-05-14T03:02:36;8.77;;;7.90;;
23747;SDS011;12054;53.662;10.126;2023-05-14T03:05:01;8.60;;;7.80;;
23747;SDS011;12054;53.662;10.126;2023-05-14T03:07:27;8.07;;;7.32;;
23747;SDS011;12054;53.662;10.126;2023-05-14T03:09:53;8.70;;;7.45;;
23747;SDS011;12054;53.662;10.126;2023-05-14T03:12:18;8.43;;;7.57;;
23747;SDS011;12054;53.662;10.126;2023-05-14T03:14:44;8.65;;;7.30;;
23747;SDS011;12054;53.662;10.126;2023-05-14T03:17:10;8.48;;;7.65;;
23747;SDS011;12054;53.662;10.126;2023-05-14T03:19:36;8.50;;;7.38;;
23747;SDS011;12054;53.662;10.126;2023-05-14T03:22:01;8.98;;;8.02;;
23747;SDS011;12054;53.662;10.126;2023-05-14T03:24:28;8.00;;;7.30;;
23747;SDS011;12054;53.662;10.126;2023-05-14T03:26:53;8.93;;;7.93;;
23747;SDS011;12054;53.662;10.126;2023-05-14T03:29:19;8.38;;;7.22;;
23747;SDS011;12054;53.662;10.126;2023-05-14T03:31:44;8.38;;;7.40;;
23747;SDS011;12054;53.662;10.126;2023-05-14T03:34:10;11.38;;;7.97;;
23747;SDS011;12054;53.662;10.126;2023-05-14T03:36:35;8.80;;;7.90;;
23747;SDS011;12054;53.662;10.126;2023-05-14T03:39:02;9.65;;;8.38;;
23747;SDS011;12054;53.662;10.126;2023-05-14T03:41:30;9.20;;;8.25;;
23747;SDS011;12054;53.662;10.126;2023-05-14T03:43:56;8.32;;;7.40;;
23747;SDS011;12054;53.662;10.126;2023-05-14T03:46:21;8.18;;;7.22;;
23747;SDS011;12054;53.662;10.126;2023-05-14T03:48:47;8.85;;;7.13;;
23747;SDS011;12054;53.662;10.126;2023-05-14T03:51:12;8.77;;;7.90;;
23747;SDS011;12054;53.662;10.126;2023-05-14T03:53:38;10.30;;;7.45;;
23747;SDS011;12054;53.662;10.126;2023-05-14T03:56:03;9.32;;;8.23;;
23747;SDS011;12054;53.662;10.126;2023-05-14T03:58:29;7.97;;;7.18;;
23747;SDS011;12054;53.662;10.126;2023-05-14T04:00:54;8.50;;;7.63;;
23747;SDS011;12054;53.662;10.126;2023-05-14T04:03:20;9.02;;;7.95;;
23747;SDS011;12054;53.662;10.126;2023-05-14T04:05:46;9.23;;;8.23;;
23747;SDS011;12054;53.662;10.126;2023-05-14T04:08:11;8.82;;;7.88;;
23747;SDS011;12054;53.662;10.126;2023-05-14T04:10:37;8.68;;;7.78;;
23747;SDS011;12054;53.662;10.126;2023-05-14T04:13:02;8.27;;;7.45;;
23747;SDS011;12054;53.662;10.126;2023-05-14T04:15:28;8.18;;;7.30;;
23747;SDS011;12054;53.662;10.126;2023-05-14T04:17:53;9.40;;;7.78;;
23747;SDS011;12054;53.662;10.126;2023-05-14T04:20:19;8.55;;;7.75;;
23747;SDS011;12054;53.662;10.126;2023-05-14T04:22:44;8.55;;;7.65;;
23747;SDS011;12054;53.662;10.126;2023-05-14T04:25:09;10.13;;;8.43;;
23747;SDS011;12054;53.662;10.126;2023-05-14T04:27:35;8.73;;;7.60;;
23747;SDS011;12054;53.662;10.126;2023-05-14T04:30:00;8.30;;;7.47;;
23747;SDS011;12054;53.662;10.126;2023-05-14T04:32:26;8.90;;;7.95;;
23747;SDS011;12054;53.662;10.126;2023-05-14T04:34:52;10.50;;;8.00;;
23747;SDS011;12054;53.662;10.126;2023-05-14T04:37:31;9.32;;;7.80;;
23747;SDS011;12054;53.662;10.126;2023-05-14T04:39:57;9.02;;;7.75;;
23747;SDS011;12054;53.662;10.126;2023-05-14T04:42:22;9.00;;;7.53;;
23747;SDS011;12054;53.662;10.126;2023-05-14T04:44:48;9.05;;;8.13;;
23747;SDS011;12054;53.662;10.126;2023-05-14T04:47:13;8.13;;;7.30;;
23747;SDS011;12054;53.662;10.126;2023-05-14T04:49:39;8.45;;;7.70;;
23747;SDS011;12054;53.662;10.126;2023-05-14T04:52:05;8.38;;;7.47;;
23747;SDS011;12054;53.662;10.126;2023-05-14T04:54:30;9.07;;;7.68;;
23747;SDS011;12054;53.662;10.126;2023-05-14T04:56:56;8.65;;;7.75;;
23747;SDS011;12054;53.662;10.126;2023-05-14T04:59:35;8.10;;;7.15;;
23747;SDS011;12054;53.662;10.126;2023-05-14T05:02:00;7.70;;;6.93;;
23747;SDS011;12054;53.662;10.126;2023-05-14T05:04:26;11.02;;;7.93;;
23747;SDS011;12054;53.662;10.126;2023-05-14T05:06:52;11.10;;;7.47;;
23747;SDS011;12054;53.662;10.126;2023-05-14T05:09:17;9.93;;;7.63;;
23747;SDS011;12054;53.662;10.126;2023-05-14T05:11:43;8.45;;;7.55;;
23747;SDS011;12054;53.662;10.126;2023-05-14T05:14:08;8.57;;;7.68;;
23747;SDS011;12054;53.662;10.126;2023-05-14T05:16:33;9.27;;;7.45;;
23747;SDS011;12054;53.662;10.126;2023-05-14T05:18:59;8.50;;;7.70;;
23747;SDS011;12054;53.662;10.126;2023-05-14T05:21:24;8.80;;;7.22;;
23747;SDS011;12054;53.662;10.126;2023-05-14T05:23:50;8.85;;;7.68;;
23747;SDS011;12054;53.662;10.126;2023-05-14T05:26:16;7.90;;;7.10;;
23747;SDS011;12054;53.662;10.126;2023-05-14T05:28:41;8.77;;;7.20;;
23747;SDS011;12054;53.662;10.126;2023-05-14T05:31:07;8.27;;;7.40;;
23747;SDS011;12054;53.662;10.126;2023-05-14T05:33:33;8.75;;;7.85;;
23747;SDS011;12054;53.662;10.126;2023-05-14T05:35:59;8.65;;;7.45;;
23747;SDS011;12054;53.662;10.126;2023-05-14T05:38:24;7.80;;;7.10;;
23747;SDS011;12054;53.662;10.126;2023-05-14T05:40:50;8.95;;;7.10;;
23747;SDS011;12054;53.662;10.126;2023-05-14T05:43:16;13.13;;;7.35;;
23747;SDS011;12054;53.662;10.126;2023-05-14T05:45:42;8.20;;;7.07;;
23747;SDS011;12054;53.662;10.126;2023-05-14T05:48:07;8.43;;;7.63;;
23747;SDS011;12054;53.662;10.126;2023-05-14T05:50:33;7.70;;;6.97;;
23747;SDS011;12054;53.662;10.126;2023-05-14T05:52:58;9.57;;;6.80;;
23747;SDS011;12054;53.662;10.126;2023-05-14T05:55:24;8.20;;;7.10;;
23747;SDS011;12054;53.662;10.126;2023-05-14T05:57:50;7.97;;;6.53;;
23747;SDS011;12054;53.662;10.126;2023-05-14T06:00:15;7.47;;;6.28;;
23747;SDS011;12054;53.662;10.126;2023-05-14T06:02:41;7.22;;;6.50;;
23747;SDS011;12054;53.662;10.126;2023-05-14T06:05:07;6.60;;;5.75;;
23747;SDS011;12054;53.662;10.126;2023-05-14T06:07:34;7.97;;;6.03;;
23747;SDS011;12054;53.662;10.126;2023-05-14T06:10:00;8.25;;;6.40;;
23747;SDS011;12054;53.662;10.126;2023-05-14T06:12:25;8.23;;;5.75;;
23747;SDS011;12054;53.662;10.126;2023-05-14T06:14:52;5.97;;;5.43;;
23747;SDS011;12054;53.662;10.126;2023-05-14T06:17:19;6.60;;;6.00;;
23747;SDS011;12054;53.662;10.126;2023-05-14T06:19:45;7.30;;;5.63;;
23747;SDS011;12054;53.662;10.126;2023-05-14T06:22:10;6.60;;;6.00;;
23747;SDS011;12054;53.662;10.126;2023-05-14T06:24:36;6.40;;;5.55;;
23747;SDS011;12054;53.662;10.126;2023-05-14T06:27:01;7.35;;;5.53;;
23747;SDS011;12054;53.662;10.126;2023-05-14T06:29:28;6.57;;;5.70;;
23747;SDS011;12054;53.662;10.126;2023-05-14T06:31:56;6.32;;;5.72;;
23747;SDS011;12054;53.662;10.126;2023-05-14T06:34:25;7.03;;;5.45;;
23747;SDS011;12054;53.662;10.126;2023-05-14T06:36:50;6.57;;;5.78;;
23747;SDS011;12054;53.662;10.126;2023-05-14T06:39:16;6.13;;;5.55;;
23747;SDS011;12054;53.662;10.126;2023-05-14T06:41:41;5.80;;;5.18;;
23747;SDS011;12054;53.662;10.126;2023-05-14T06:44:07;6.72;;;5.53;;
23747;SDS011;12054;53.662;10.126;2023-05-14T06:46:32;10.05;;;5.70;;
23747;SDS011;12054;53.662;10.126;2023-05-14T06:48:58;8.30;;;5.47;;
23747;SDS011;12054;53.662;10.126;2023-05-14T06:51:23;5.50;;;4.88;;
23747;SDS011;12054;53.662;10.126;2023-05-14T06:53:49;5.95;;;5.03;;
23747;SDS011;12054;53.662;10.126;2023-05-14T06:56:16;5.65;;;5.05;;
23747;SDS011;12054;53.662;10.126;2023-05-14T06:58:41;5.93;;;5.35;;
23747;SDS011;12054;53.662;10.126;2023-05-14T07:01:07;5.85;;;5.28;;
23747;SDS011;12054;53.662;10.126;2023-05-14T07:03:33;6.10;;;5.40;;
23747;SDS011;12054;53.662;10.126;2023-05-14T07:05:58;6.85;;;5.35;;
23747;SDS011;12054;53.662;10.126;2023-05-14T07:08:23;6.20;;;5.32;;
23747;SDS011;12054;53.662;10.126;2023-05-14T07:10:49;6.57;;;5.45;;
23747;SDS011;12054;53.662;10.126;2023-05-14T07:13:15;6.93;;;5.55;;
23747;SDS011;12054;53.662;10.126;2023-05-14T07:15:40;5.47;;;4.97;;
23747;SDS011;12054;53.662;10.126;2023-05-14T07:18:06;7.55;;;5.50;;
23747;SDS011;12054;53.662;10.126;2023-05-14T07:20:31;5.88;;;5.05;;
23747;SDS011;12054;53.662;10.126;2023-05-14T07:22:57;5.68;;;5.18;;
23747;SDS011;12054;53.662;10.126;2023-05-14T07:25:23;5.20;;;4.70;;
23747;SDS011;12054;53.662;10.126;2023-05-14T07:27:48;5.78;;;4.75;;
23747;SDS011;12054;53.662;10.126;2023-05-14T07:30:14;5.20;;;4.70;;
23747;SDS011;12054;53.662;10.126;2023-05-14T07:32:39;5.32;;;4.60;;
23747;SDS011;12054;53.662;10.126;2023-05-14T07:35:05;6.85;;;5.10;;
23747;SDS011;12054;53.662;10.126;2023-05-14T07:37:31;5.55;;;4.32;;
23747;SDS011;12054;53.662;10.126;2023-05-14T07:39:56;5.68;;;4.80;;
23747;SDS011;12054;53.662;10.126;2023-05-14T07:42:22;5.22;;;4.72;;
23747;SDS011;12054;53.662;10.126;2023-05-14T07:44:47;5.75;;;4.47;;
23747;SDS011;12054;53.662;10.126;2023-05-14T07:47:14;5.35;;;4.35;;
23747;SDS011;12054;53.662;10.126;2023-05-14T07:49:44;4.90;;;4.40;;
23747;SDS011;12054;53.662;10.126;2023-05-14T07:52:09;5.20;;;4.38;;
23747;SDS011;12054;53.662;10.126;2023-05-14T07:54:35;7.40;;;4.63;;
23747;SDS011;12054;53.662;10.126;2023-05-14T07:57:00;4.63;;;4.22;;
23747;SDS011;12054;53.662;10.126;2023-05-14T07:59:26;5.80;;;4.75;;
23747;SDS011;12054;53.662;10.126;2023-05-14T08:01:51;5.55;;;4.22;;
23747;SDS011;12054;53.662;10.126;2023-05-14T08:04:24;6.40;;;3.92;;
23747;SDS011;12054;53.662;10.126;2023-05-14T08:06:50;6.03;;;4.20;;
23747;SDS011;12054;53.662;10.126;2023-05-14T08:09:15;4.55;;;3.95;;
23747;SDS011;12054;53.662;10.126;2023-05-14T08:11:41;5.65;;;4.03;;
23747;SDS011;12054;53.662;10.126;2023-05-14T08:14:06;5.82;;;4.40;;
23747;SDS011;12054;53.662;10.126;2023-05-14T08:16:32;4.45;;;4.05;;
23747;SDS011;12054;53.662;10.126;2023-05-14T08:18:57;5.20;;;3.90;;
23747;SDS011;12054;53.662;10.126;2023-05-14T08:21:23;6.28;;;3.97;;
23747;SDS011;12054;53.662;10.126;2023-05-14T08:23:48;6.47;;;3.85;;
23747;SDS011;12054;53.662;10.126;2023-05-14T08:26:14;4.50;;;4.10;;
23747;SDS011;12054;53.662;10.126;2023-05-14T08:28:41;5.72;;;3.97;;
23747;SDS011;12054;53.662;10.126;2023-05-14T08:31:06;5.63;;;4.05;;
23747;SDS011;12054;53.662;10.126;2023-05-14T08:33:32;6.43;;;4.15;;
23747;SDS011;12054;53.662;10.126;2023-05-14T08:35:57;4.30;;;3.90;;
23747;SDS011;12054;53.662;10.126;2023-05-14T08:38:24;4.72;;;3.53;;
23747;SDS011;12054;53.662;10.126;2023-05-14T08:40:52;5.70;;;3.60;;
23747;SDS011;12054;53.662;10.126;2023-05-14T08:43:22;5.25;;;3.78;;
23747;SDS011;12054;53.662;10.126;2023-05-14T08:45:53;7.30;;;3.70;;
23747;SDS011;12054;53.662;10.126;2023-05-14T08:48:23;4.88;;;3.70;;
23747;SDS011;12054;53.662;10.126;2023-05-14T08:50:52;4.30;;;3.90;;
23747;SDS011;12054;53.662;10.126;2023-05-14T08:53:18;4.47;;;3.83;;
23747;SDS011;12054;53.662;10.126;2023-05-14T08:55:43;4.53;;;3.90;;
23747;SDS011;12054;53.662;10.126;2023-05-14T08:58:13;4.75;;;4.07;;
23747;SDS011;12054;53.662;10.126;2023-05-14T09:00:39;4.15;;;3.70;;
23747;SDS011;12054;53.662;10.126;2023-05-14T09:03:05;5.22;;;3.85;;
23747;SDS011;12054;53.662;10.126;2023-05-14T09:05:31;5.57;;;3.67;;
23747;SDS011;12054;53.662;10.126;2023-05-14T09:07:57;7.18;;;3.80;;
23747;SDS011;12054;53.662;10.126;2023-05-14T09:10:23;5.05;;;3.97;;
23747;SDS011;12054;53.662;10.126;2023-05-14T09:12:48;6.22;;;3.70;;
23747;SDS011;12054;53.662;10.126;2023-05-14T09:15:14;4.43;;;3.22;;
23747;SDS011;12054;53.662;10.126;2023-05-14T09:17:39;5.90;;;3.67;;
23747;SDS011;12054;53.662;10.126;2023-05-14T09:20:05;5.68;;;4.18;;
23747;SDS011;12054;53.662;10.126;2023-05-14T09:22:31;4.70;;;3.53;;
23747;SDS011;12054;53.662;10.126;2023-05-14T09:25:01;4.45;;;3.35;;
23747;SDS011;12054;53.662;10.126;2023-05-14T09:27:33;7.68;;;3.78;;
23747;SDS011;12054;53.662;10.126;2023-05-14T09:30:18;5.55;;;4.20;;
23747;SDS011;12054;53.662;10.126;2023-05-14T09:32:43;5.68;;;3.60;;
23747;SDS011;12054;53.662;10.126;2023-05-14T09:35:13;5.43;;;4.13;;
23747;SDS011;12054;53.662;10.126;2023-05-14T09:37:41;4.60;;;3.72;;
23747;SDS011;12054;53.662;10.126;2023-05-14T09:40:12;3.78;;;3.38;;
23747;SDS011;12054;53.662;10.126;2023-05-14T09:42:38;6.78;;;3.88;;
23747;SDS011;12054;53.662;10.126;2023-05-14T09:45:05;6.93;;;3.45;;
23747;SDS011;12054;53.662;10.126;2023-05-14T09:47:32;4.03;;;3.40;;
23747;SDS011;12054;53.662;10.126;2023-05-14T09:49:57;4.50;;;3.65;;
23747;SDS011;12054;53.662;10.126;2023-05-14T09:52:23;4.78;;;3.38;;
23747;SDS011;12054;53.662;10.126;2023-05-14T09:54:49;3.67;;;3.20;;
23747;SDS011;12054;53.662;10.126;2023-05-14T09:57:16;3.63;;;3.28;;
23747;SDS011;12054;53.662;10.126;2023-05-14T09:59:41;5.18;;;3.35;;
23747;SDS011;12054;53.662;10.126;2023-05-14T10:02:09;5.20;;;3.60;;
23747;SDS011;12054;53.662;10.126;2023-05-14T10:04:42;3.33;;;3.03;;
23747;SDS011;12054;53.662;10.126;2023-05-14T10:07:08;3.55;;;3.25;;
23747;SDS011;12054;53.662;10.126;2023-05-14T10:09:34;3.65;;;3.33;;
23747;SDS011;12054;53.662;10.126;2023-05-14T10:12:03;3.50;;;3.10;;
23747;SDS011;12054;53.662;10.126;2023-05-14T10:14:35;3.80;;;3.10;;
23747;SDS011;12054;53.662;10.126;2023-05-14T10:17:05;3.97;;;3.10;;
23747;SDS011;12054;53.662;10.126;2023-05-14T10:19:32;5.68;;;3.28;;
23747;SDS011;12054;53.662;10.126;2023-05-14T10:22:05;5.70;;;3.30;;
23747;SDS011;12054;53.662;10.126;2023-05-14T10:24:33;4.75;;;4.03;;
23747;SDS011;12054;53.662;10.126;2023-05-14T10:27:02;5.85;;;3.33;;
23747;SDS011;12054;53.662;10.126;2023-05-14T10:29:35;4.43;;;3.20;;
23747;SDS011;12054;53.662;10.126;2023-05-14T10:32:05;5.43;;;3.28;;
23747;SDS011;12054;53.662;10.126;2023-05-14T10:39:58;4.28;;;3.15;;
23747;SDS011;12054;53.662;10.126;2023-05-14T10:42:28;5.57;;;3.03;;
23747;SDS011;12054;53.662;10.126;2023-05-14T10:45:01;3.28;;;2.97;;
23747;SDS011;12054;53.662;10.126;2023-05-14T10:47:31;3.97;;;3.20;;
23747;SDS011;12054;53.662;10.126;2023-05-14T10:49:58;5.30;;;3.13;;
23747;SDS011;12054;53.662;10.126;2023-05-14T10:52:25;3.67;;;3.00;;
23747;SDS011;12054;53.662;10.126;2023-05-14T10:54:52;3.35;;;3.05;;
23747;SDS011;12054;53.662;10.126;2023-05-14T10:57:29;4.05;;;3.15;;
23747;SDS011;12054;53.662;10.126;2023-05-14T10:59:56;4.70;;;3.50;;
23747;SDS011;12054;53.662;10.126;2023-05-14T11:04:54;5.90;;;3.22;;
23747;SDS011;12054;53.662;10.126;2023-05-14T11:08:04;4.07;;;3.35;;
23747;SDS011;12054;53.662;10.126;2023-05-14T11:12:41;5.07;;;3.35;;
23747;SDS011;12054;53.662;10.126;2023-05-14T11:15:09;5.35;;;3.10;;
23747;SDS011;12054;53.662;10.126;2023-05-14T11:17:37;4.15;;;3.20;;
23747;SDS011;12054;53.662;10.126;2023-05-14T11:20:04;6.97;;;3.83;;
23747;SDS011;12054;53.662;10.126;2023-05-14T11:22:30;6.00;;;3.63;;
23747;SDS011;12054;53.662;10.126;2023-05-14T11:24:56;4.07;;;3.33;;
23747;SDS011;12054;53.662;10.126;2023-05-14T11:27:22;5.63;;;3.58;;
23747;SDS011;12054;53.662;10.126;2023-05-14T11:29:48;4.65;;;3.67;;
23747;SDS011;12054;53.662;10.126;2023-05-14T11:32:15;5.95;;;3.53;;
23747;SDS011;12054;53.662;10.126;2023-05-14T11:34:42;5.72;;;3.88;;
23747;SDS011;12054;53.662;10.126;2023-05-14T11:37:09;4.72;;;3.67;;
23747;SDS011;12054;53.662;10.126;2023-05-14T11:39:36;6.07;;;3.50;;
23747;SDS011;12054;53.662;10.126;2023-05-14T11:42:09;4.70;;;3.55;;
23747;SDS011;12054;53.662;10.126;2023-05-14T11:44:37;4.35;;;3.60;;
23747;SDS011;12054;53.662;10.126;2023-05-14T11:47:03;5.85;;;4.40;;
23747;SDS011;12054;53.662;10.126;2023-05-14T11:49:29;7.15;;;3.97;;
23747;SDS011;12054;53.662;10.126;2023-05-14T11:52:05;4.70;;;3.50;;
23747;SDS011;12054;53.662;10.126;2023-05-14T11:54:34;7.22;;;3.42;;
23747;SDS011;12054;53.662;10.126;2023-05-14T11:57:09;6.22;;;3.95;;
23747;SDS011;12054;53.662;10.126;2023-05-14T11:59:37;4.03;;;3.50;;
23747;SDS011;12054;53.662;10.126;2023-05-14T12:02:07;5.32;;;3.70;;
23747;SDS011;12054;53.662;10.126;2023-05-14T12:04:34;5.53;;;3.80;;
23747;SDS011;12054;53.662;10.126;2023-05-14T12:07:03;5.40;;;4.05;;
23747;SDS011;12054;53.662;10.126;2023-05-14T12:09:37;4.13;;;3.72;;
23747;SDS011;12054;53.662;10.126;2023-05-14T12:12:20;4.22;;;3.65;;
23747;SDS011;12054;53.662;10.126;2023-05-14T12:14:46;3.95;;;3.55;;
23747;SDS011;12054;53.662;10.126;2023-05-14T12:19:39;9.90;;;4.00;;
23747;SDS011;12054;53.662;10.126;2023-05-14T12:22:06;3.63;;;3.33;;
23747;SDS011;12054;53.662;10.126;2023-05-14T12:24:33;6.05;;;3.65;;
23747;SDS011;12054;53.662;10.126;2023-05-14T12:26:59;6.25;;;3.72;;
23747;SDS011;12054;53.662;10.126;2023-05-14T12:29:26;5.40;;;3.50;;
23747;SDS011;12054;53.662;10.126;2023-05-14T12:31:51;4.18;;;3.53;;
23747;SDS011;12054;53.662;10.126;2023-05-14T12:34:17;4.20;;;3.40;;
23747;SDS011;12054;53.662;10.126;2023-05-14T12:36:42;3.90;;;3.50;;
23747;SDS011;12054;53.662;10.126;2023-05-14T12:39:08;4.05;;;3.65;;
23747;SDS011;12054;53.662;10.126;2023-05-14T12:41:35;5.53;;;3.85;;
23747;SDS011;12054;53.662;10.126;2023-05-14T12:44:01;5.65;;;3.47;;
23747;SDS011;12054;53.662;10.126;2023-05-14T12:46:28;4.43;;;3.60;;
23747;SDS011;12054;53.662;10.126;2023-05-14T12:48:54;4.35;;;3.95;;
23747;SDS011;12054;53.662;10.126;2023-05-14T12:51:20;7.45;;;4.20;;
23747;SDS011;12054;53.662;10.126;2023-05-14T12:53:46;5.15;;;4.00;;
23747;SDS011;12054;53.662;10.126;2023-05-14T12:56:12;6.25;;;3.90;;
23747;SDS011;12054;53.662;10.126;2023-05-14T12:58:38;4.25;;;3.85;;
23747;SDS011;12054;53.662;10.126;2023-05-14T13:01:04;4.80;;;4.07;;
23747;SDS011;12054;53.662;10.126;2023-05-14T13:03:29;6.63;;;4.40;;
23747;SDS011;12054;53.662;10.126;2023-05-14T13:05:55;5.05;;;4.20;;
23747;SDS011;12054;53.662;10.126;2023-05-14T13:08:21;5.70;;;4.32;;
23747;SDS011;12054;53.662;10.126;2023-05-14T13:10:49;6.65;;;4.05;;
23747;SDS011;12054;53.662;10.126;2023-05-14T13:13:15;5.47;;;4.25;;
23747;SDS011;12054;53.662;10.126;2023-05-14T13:15:41;6.22;;;4.55;;
23747;SDS011;12054;53.662;10.126;2023-05-14T13:18:06;5.15;;;4.57;;
23747;SDS011;12054;53.662;10.126;2023-05-14T13:20:32;6.13;;;4.25;;
23747;SDS011;12054;53.662;10.126;2023-05-14T13:22:59;6.18;;;4.40;;
23747;SDS011;12054;53.662;10.126;2023-05-14T13:25:25;5.45;;;4.22;;
23747;SDS011;12054;53.662;10.126;2023-05-14T13:27:50;4.75;;;4.30;;
23747;SDS011;12054;53.662;10.126;2023-05-14T13:30:16;9.27;;;4.40;;
23747;SDS011;12054;53.662;10.126;2023-05-14T13:32:42;6.35;;;4.40;;
23747;SDS011;12054;53.662;10.126;2023-05-14T13:35:08;5.30;;;3.70;;
23747;SDS011;12054;53.662;10.126;2023-05-14T13:37:34;4.13;;;3.83;;
23747;SDS011;12054;53.662;10.126;2023-05-14T13:39:59;4.40;;;3.85;;
23747;SDS011;12054;53.662;10.126;2023-05-14T13:42:25;5.28;;;4.20;;
23747;SDS011;12054;53.662;10.126;2023-05-14T13:44:51;5.05;;;3.75;;
23747;SDS011;12054;53.662;10.126;2023-05-14T13:47:16;7.50;;;4.03;;
23747;SDS011;12054;53.662;10.126;2023-05-14T13:49:42;5.28;;;4.20;;
23747;SDS011;12054;53.662;10.126;2023-05-14T13:52:07;4.53;;;4.10;;
23747;SDS011;12054;53.662;10.126;2023-05-14T13:54:33;5.55;;;4.10;;
23747;SDS011;12054;53.662;10.126;2023-05-14T13:56:58;5.60;;;3.85;;
23747;SDS011;12054;53.662;10.126;2023-05-14T13:59:24;4.35;;;3.83;;
23747;SDS011;12054;53.662;10.126;2023-05-14T14:01:49;6.25;;;3.97;;
23747;SDS011;12054;53.662;10.126;2023-05-14T14:04:15;4.35;;;3.80;;
23747;SDS011;12054;53.662;10.126;2023-05-14T14:06:41;5.05;;;4.55;;
23747;SDS011;12054;53.662;10.126;2023-05-14T14:09:07;7.80;;;4.88;;
23747;SDS011;12054;53.662;10.126;2023-05-14T14:11:34;5.00;;;4.00;;
23747;SDS011;12054;53.662;10.126;2023-05-14T14:14:00;4.75;;;4.05;;
23747;SDS011;12054;53.662;10.126;2023-05-14T14:16:25;5.00;;;4.18;;
23747;SDS011;12054;53.662;10.126;2023-05-14T14:18:51;6.68;;;4.30;;
23747;SDS011;12054;53.662;10.126;2023-05-14T14:21:16;4.32;;;3.90;;
23747;SDS011;12054;53.662;10.126;2023-05-14T14:23:45;5.05;;;3.63;;
23747;SDS011;12054;53.662;10.126;2023-05-14T14:26:11;5.53;;;3.78;;
23747;SDS011;12054;53.662;10.126;2023-05-14T14:28:36;5.35;;;3.80;;
23747;SDS011;12054;53.662;10.126;2023-05-14T14:31:02;4.72;;;4.10;;
23747;SDS011;12054;53.662;10.126;2023-05-14T14:33:27;4.15;;;3.75;;
23747;SDS011;12054;53.662;10.126;2023-05-14T14:35:53;5.10;;;3.80;;
23747;SDS011;12054;53.662;10.126;2023-05-14T14:38:18;6.75;;;4.18;;
23747;SDS011;12054;53.662;10.126;2023-05-14T14:40:44;5.35;;;4.45;;
23747;SDS011;12054;53.662;10.126;2023-05-14T14:43:10;4.28;;;3.88;;
23747;SDS011;12054;53.662;10.126;2023-05-14T14:45:36;4.28;;;3.88;;
23747;SDS011;12054;53.662;10.126;2023-05-14T14:50:46;4.18;;;3.78;;
23747;SDS011;12054;53.662;10.126;2023-05-14T14:53:11;5.57;;;3.78;;
23747;SDS011;12054;53.662;10.126;2023-05-14T14:55:37;4.65;;;3.75;;